Time;durP1;ratioP1;P1;durP2;ratioP2;P2;SDS_P1;SDS_P2;PMS_P1;PMS_P2;Temp;Humidity;BMP_temperature;BMP_pressure;BME280_temperature;BME280_humidity;BME280_pressure;Samples;Min_cycle;Max_cycle;Signal;HPM_P1;HPM_P2
2022/11/03 00:01:49;;;;;;;0.00;0.00;;;10.80;99.90;;;;;;5039133;28;20115;-88
2022/11/03 00:04:22;;;;;;;0.10;0.10;;;10.70;99.90;;;;;;5035485;28;20061;-88
2022/11/03 00:06:50;;;;;;;0.00;0.00;;;10.80;99.90;;;;;;5028861;28;20065;-88
2022/11/03 00:09:19;;;;;;;0.10;0.10;;;10.70;99.90;;;;;;5040348;28;20040;-87
2022/11/03 00:11:49;;;;;;;0.10;0.10;;;10.70;99.90;;;;;;5037448;28;20095;-90
2022/11/03 00:14:17;;;;;;;0.00;0.00;;;;;;;;;;5033575;28;20050;-87
2022/11/03 00:16:44;;;;;;;0.10;0.10;;;;;;;;;;5030486;28;20050;-91
2022/11/03 00:19:15;;;;;;;0.10;0.10;;;;;;;;;;5036767;28;20099;-88
2022/11/03 00:21:49;;;;;;;0.00;0.00;;;10.70;99.90;;;;;;5038624;28;20080;-86
2022/11/03 00:24:21;;;;;;;0.00;0.00;;;;;;;;;;5026088;28;20050;-87
2022/11/03 00:26:58;;;;;;;0.00;0.00;;;10.80;99.90;;;;;;5034335;28;20049;-87
2022/11/03 00:29:28;;;;;;;0.00;0.00;;;;;;;;;;5036215;28;20100;-88
2022/11/03 00:31:55;;;;;;;0.10;0.10;;;;;;;;;;5038100;28;20045;-90
2022/11/03 00:34:22;;;;;;;0.10;0.10;;;;;;;;;;5037911;28;20049;-92
2022/11/03 00:36:54;;;;;;;0.00;0.00;;;10.80;99.90;;;;;;5034751;28;20042;-87
2022/11/03 00:39:22;;;;;;;0.10;0.10;;;;;;;;;;5044386;28;20049;-88
2022/11/03 00:41:50;;;;;;;0.10;0.10;;;;;;;;;;5036045;28;20046;-90
2022/11/03 00:44:17;;;;;;;0.00;0.00;;;;;;;;;;5036905;28;20072;-87
2022/11/03 00:46:44;;;;;;;0.10;0.10;;;;;;;;;;5035545;28;20045;-88
2022/11/03 00:49:11;;;;;;;0.00;0.00;;;;;;;;;;5053985;28;20049;-87
2022/11/03 00:51:39;;;;;;;0.10;0.10;;;;;;;;;;5037698;28;20071;-87
2022/11/03 00:54:07;;;;;;;0.10;0.10;;;10.90;99.90;;;;;;5034721;28;20053;-87
2022/11/03 00:56:36;;;;;;;0.00;0.00;;;10.80;99.90;;;;;;5036138;28;20049;-89
2022/11/03 00:59:05;;;;;;;0.10;0.10;;;10.80;99.90;;;;;;5039549;28;20049;-88
2022/11/03 01:01:33;;;;;;;0.10;0.10;;;10.90;99.90;;;;;;5038283;28;20053;-88
2022/11/03 01:06:53;;;;;;;0.10;0.10;;;10.90;99.90;;;;;;5050691;28;20095;-87
2022/11/03 01:09:25;;;;;;;0.10;0.10;;;10.90;99.90;;;;;;5033218;28;20532;-87
2022/11/03 01:11:56;;;;;;;0.10;0.10;;;10.80;99.90;;;;;;5037044;28;20045;-86
2022/11/03 01:14:25;;;;;;;0.10;0.10;;;10.80;99.90;;;;;;5044502;28;20060;-94
2022/11/03 01:16:52;;;;;;;0.00;0.00;;;;;;;;;;5058645;28;20029;-91
2022/11/03 01:19:19;;;;;;;0.10;0.10;;;;;;;;;;5047671;28;20053;-88
2022/11/03 01:21:47;;;;;;;0.00;0.00;;;;;;;;;;5034117;28;20189;-86
2022/11/03 01:24:14;;;;;;;0.10;0.10;;;;;;;;;;5056853;28;20060;-90
2022/11/03 01:26:42;;;;;;;0.10;0.10;;;10.80;99.90;;;;;;5034598;28;20044;-89
2022/11/03 01:29:10;;;;;;;0.10;0.10;;;;;;;;;;5036395;28;20056;-87
2022/11/03 01:31:37;;;;;;;0.00;0.00;;;;;;;;;;5048692;28;20131;-87
2022/11/03 01:34:04;;;;;;;0.00;0.00;;;;;;;;;;5042060;28;20045;-87
2022/11/03 01:36:32;;;;;;;0.10;0.10;;;;;;;;;;5041622;28;20052;-87
2022/11/03 01:38:59;;;;;;;0.00;0.00;;;;;;;;;;5061399;28;20518;-88
2022/11/03 01:41:27;;;;;;;0.00;0.00;;;10.80;99.90;;;;;;5044017;28;20564;-87
2022/11/03 01:44:24;;;;;;;0.00;0.00;;;10.80;99.90;;;;;;5059335;28;20076;-90
2022/11/03 01:46:56;;;;;;;0.00;0.00;;;10.70;99.90;;;;;;5041182;28;20557;-90
2022/11/03 01:49:28;;;;;;;0.10;0.10;;;10.70;99.90;;;;;;5061620;28;20051;-89
2022/11/03 01:51:58;;;;;;;0.10;0.10;;;10.70;99.90;;;;;;5034988;28;20041;-88
2022/11/03 01:54:27;;;;;;;0.10;0.10;;;10.60;99.90;;;;;;5043326;28;20048;-88
2022/11/03 01:56:55;;;;;;;0.10;0.10;;;;;;;;;;5042946;28;20162;-88
2022/11/03 01:59:24;;;;;;;0.10;0.10;;;10.50;99.90;;;;;;5040772;28;20252;-88
2022/11/03 02:01:52;;;;;;;0.10;0.10;;;;;;;;;;5040659;28;20045;-87
2022/11/03 02:04:25;;;;;;;0.00;0.00;;;10.60;99.90;;;;;;5036961;28;20053;-88
2022/11/03 02:07:01;;;;;;;0.10;0.10;;;10.50;99.90;;;;;;5032424;28;20379;-89
2022/11/03 02:09:29;;;;;;;0.00;0.00;;;;;;;;;;5036578;28;20041;-89
2022/11/03 02:12:06;;;;;;;0.03;0.03;;;;;;;;;;5039577;28;20053;-91
2022/11/03 02:14:37;;;;;;;0.10;0.10;;;11.80;99.90;;;;;;5056153;28;20476;-90
2022/11/03 02:17:08;;;;;;;0.10;0.10;;;10.50;99.90;;;;;;5036697;28;20048;-88
2022/11/03 02:19:39;;;;;;;0.00;0.00;;;10.50;99.90;;;;;;5038532;28;20044;-87
2022/11/03 02:22:24;;;;;;;0.10;0.10;;;10.50;99.90;;;;;;5037433;28;20564;-88
2022/11/03 02:24:55;;;;;;;0.10;0.10;;;10.50;99.90;;;;;;5041233;28;20042;-88
2022/11/03 02:27:23;;;;;;;0.10;0.10;;;10.50;99.90;;;;;;5059570;28;20037;-88
2022/11/03 02:29:50;;;;;;;0.10;0.10;;;;;;;;;;5037789;28;20073;-88
2022/11/03 02:32:21;;;;;;;0.10;0.10;;;10.40;99.90;;;;;;5035497;28;20057;-87
2022/11/03 02:34:54;;;;;;;0.08;0.08;;;10.40;99.90;;;;;;5055723;28;20045;-88
2022/11/03 02:37:26;;;;;;;0.10;0.10;;;10.40;99.90;;;;;;5039728;28;20483;-92
2022/11/03 02:39:57;;;;;;;0.10;0.10;;;10.40;99.90;;;;;;5036743;28;20095;-89
2022/11/03 02:42:26;;;;;;;0.00;0.00;;;10.40;99.90;;;;;;5040363;28;20048;-89
2022/11/03 02:44:56;;;;;;;0.10;0.10;;;10.40;99.90;;;;;;5053771;28;20077;-88
2022/11/03 02:47:25;;;;;;;0.10;0.10;;;10.40;99.90;;;;;;5035238;28;20447;-90
2022/11/03 02:49:53;;;;;;;0.10;0.10;;;10.40;99.90;;;;;;5039275;28;20491;-90
2022/11/03 02:52:34;;;;;;;0.10;0.10;;;10.30;99.90;;;;;;5036899;28;20049;-89
2022/11/03 02:55:08;;;;;;;0.10;0.10;;;10.40;99.90;;;;;;5031313;28;20673;-91
2022/11/03 02:57:42;;;;;;;0.10;0.10;;;10.30;99.90;;;;;;5039657;28;20067;-90
2022/11/03 03:00:10;;;;;;;0.10;0.10;;;9.40;99.90;;;;;;5056462;28;20080;-88
2022/11/03 03:02:43;;;;;;;0.10;0.10;;;10.30;99.90;;;;;;5035111;28;20102;-88
2022/11/03 03:05:13;;;;;;;0.10;0.10;;;10.30;99.90;;;;;;5034490;28;20098;-88
2022/11/03 03:07:45;;;;;;;0.10;0.10;;;10.40;99.90;;;;;;5048684;28;20037;-88
2022/11/03 03:10:15;;;;;;;0.10;0.10;;;10.30;99.90;;;;;;5034339;28;20690;-88
2022/11/03 03:12:48;;;;;;;0.10;0.10;;;10.30;99.90;;;;;;5033937;28;20538;-89
2022/11/03 03:15:17;;;;;;;0.10;0.10;;;10.30;99.90;;;;;;5037219;28;20167;-89
2022/11/03 03:17:50;;;;;;;0.10;0.10;;;10.30;99.90;;;;;;5038504;28;20400;-90
2022/11/03 03:20:23;;;;;;;0.10;0.10;;;10.30;99.90;;;;;;5054153;28;20494;-87
2022/11/03 03:22:55;;;;;;;0.10;0.10;;;10.30;99.90;;;;;;5038610;28;20044;-89
2022/11/03 03:25:27;;;;;;;0.10;0.10;;;10.30;99.90;;;;;;5034987;28;20565;-86
2022/11/03 03:28:00;;;;;;;0.10;0.10;;;10.30;99.90;;;;;;5036363;28;20069;-86
2022/11/03 03:30:29;;;;;;;0.10;0.10;;;10.30;99.90;;;;;;5043555;28;20057;-88
2022/11/03 03:32:58;;;;;;;0.10;0.10;;;10.30;99.90;;;;;;5041526;28;20053;-88
2022/11/03 03:35:29;;;;;;;0.10;0.10;;;10.30;99.90;;;;;;5037248;28;20049;-90
2022/11/03 03:38:00;;;;;;;0.10;0.10;;;10.30;99.90;;;;;;5036021;28;20060;-88
2022/11/03 03:40:31;;;;;;;0.10;0.10;;;10.30;99.90;;;;;;5052582;28;20052;-87
2022/11/03 03:43:02;;;;;;;0.10;0.10;;;10.40;99.90;;;;;;5030201;28;20083;-90
2022/11/03 03:45:30;;;;;;;0.10;0.10;;;10.40;99.90;;;;;;5037794;28;20045;-87
2022/11/03 03:47:57;;;;;;;0.10;0.10;;;;;;;;;;5036413;28;20049;-89
2022/11/03 03:50:28;;;;;;;0.00;0.00;;;10.40;99.90;;;;;;5055123;28;20067;-89
2022/11/03 03:52:59;;;;;;;0.10;0.10;;;10.50;99.90;;;;;;5035808;28;20099;-90
2022/11/03 03:55:34;;;;;;;0.10;0.10;;;10.40;99.90;;;;;;5042961;28;20053;-88
2022/11/03 03:58:03;;;;;;;0.10;0.10;;;10.70;99.90;;;;;;5036028;28;20045;-89
2022/11/03 04:00:31;;;;;;;0.10;0.10;;;;;;;;;;5052990;28;20045;-92
2022/11/03 04:02:59;;;;;;;0.10;0.10;;;;;;;;;;5033388;28;20048;-88
2022/11/03 04:05:26;;;;;;;0.10;0.10;;;;;;;;;;5039199;28;20049;-88
2022/11/03 04:07:54;;;;;;;0.10;0.10;;;;;;;;;;5052524;28;20068;-89
2022/11/03 04:10:21;;;;;;;0.10;0.10;;;10.60;99.90;;;;;;5035118;28;20573;-88
2022/11/03 04:23:52;;;;;;;0.10;0.10;;;;;;;;;;5050978;28;20064;-88
2022/11/03 04:26:23;;;;;;;0.10;0.10;;;;;;;;;;5037845;28;20076;-88
2022/11/03 04:28:51;;;;;;;0.10;0.10;;;10.50;99.90;;;;;;5050334;28;20514;-88
2022/11/03 04:31:20;;;;;;;0.10;0.10;;;10.50;99.90;;;;;;5046650;28;20103;-87
2022/11/03 04:33:48;;;;;;;0.10;0.10;;;10.50;99.90;;;;;;5034648;28;20100;-88
2022/11/03 04:36:18;;;;;;;0.10;0.10;;;10.50;99.90;;;;;;5037471;28;20048;-88
2022/11/03 04:38:45;;;;;;;0.10;0.10;;;;;;;;;;5047748;28;20076;-91
2022/11/03 04:41:16;;;;;;;0.10;0.10;;;10.50;99.90;;;;;;5037328;28;20052;-88
2022/11/03 04:43:44;;;;;;;0.10;0.10;;;10.50;99.90;;;;;;5051165;28;20048;-89
2022/11/03 04:46:14;;;;;;;0.10;0.10;;;10.50;99.90;;;;;;5035591;28;20248;-88
2022/11/03 04:48:42;;;;;;;0.10;0.10;;;10.50;99.90;;;;;;5039742;28;20041;-88
2022/11/03 04:51:14;;;;;;;0.10;0.10;;;10.50;99.90;;;;;;5053649;28;20049;-89
2022/11/03 04:53:47;;;;;;;0.10;0.10;;;10.50;99.90;;;;;;5033686;28;20045;-88
2022/11/03 04:56:18;;;;;;;0.10;0.10;;;10.50;99.90;;;;;;5028237;28;20095;-91
2022/11/03 04:58:49;;;;;;;0.10;0.10;;;;;;;;;;5033576;28;20045;-88
2022/11/03 05:01:17;;;;;;;;;;;10.50;99.90;;;;;;5044275;28;20132;-88
2022/11/03 05:03:53;;;;;;;0.10;0.10;;;10.40;99.90;;;;;;5033348;28;19921;-87
2022/11/03 05:06:20;;;;;;;;;;;10.60;99.90;;;;;;5054065;28;20064;-89
2022/11/03 05:08:50;;;;;;;0.10;0.10;;;10.40;99.90;;;;;;5038559;28;19920;-88
2022/11/03 05:11:20;;;;;;;0.10;0.10;;;10.40;99.90;;;;;;5031339;28;20095;-90
2022/11/03 05:13:49;;;;;;;0.10;0.10;;;10.50;99.90;;;;;;5047102;28;20126;-88
2022/11/03 05:16:16;;;;;;;0.10;0.10;;;;;;;;;;5044110;28;20053;-94
2022/11/03 05:18:45;;;;;;;0.10;0.10;;;10.50;99.90;;;;;;5055522;28;20044;-92
2022/11/03 05:21:16;;;;;;;0.10;0.10;;;10.40;99.90;;;;;;5041918;28;20068;-90
2022/11/03 05:23:47;;;;;;;0.10;0.10;;;10.20;99.90;;;;;;5036135;28;20128;-89
2022/11/03 05:26:18;;;;;;;0.10;0.10;;;10.50;99.90;;;;;;5037452;28;20510;-89
2022/11/03 05:28:49;;;;;;;0.10;0.10;;;10.50;99.90;;;;;;5037305;28;20084;-89
2022/11/03 05:31:22;;;;;;;0.10;0.10;;;10.50;99.90;;;;;;5037877;28;20052;-89
2022/11/03 05:33:51;;;;;;;0.10;0.10;;;10.50;99.90;;;;;;5046094;28;20077;-89
2022/11/03 05:36:23;;;;;;;0.10;0.10;;;10.50;99.90;;;;;;5035664;28;20049;-89
2022/11/03 05:38:52;;;;;;;0.10;0.10;;;10.60;99.90;;;;;;5050897;28;20651;-89
2022/11/03 05:41:22;;;;;;;0.10;0.10;;;10.60;99.90;;;;;;5035606;28;20112;-90
2022/11/03 05:43:56;;;;;;;0.10;0.10;;;10.50;99.90;;;;;;5048048;28;20134;-89
2022/11/03 05:46:26;;;;;;;0.05;0.05;;;10.60;99.90;;;;;;5027989;28;20084;-91
2022/11/03 06:15:45;;;;;;;0.10;0.10;;;10.60;99.90;;;;;;5031134;28;20045;-88
2022/11/03 06:18:17;;;;;;;0.10;0.10;;;10.70;99.90;;;;;;5037195;28;20124;-91
2022/11/03 06:20:49;;;;;;;0.10;0.10;;;10.60;99.90;;;;;;5012425;28;20376;-89
2022/11/03 06:23:18;;;;;;;0.10;0.10;;;10.60;99.90;;;;;;5039405;28;20134;-89
2022/11/03 06:25:45;;;;;;;0.10;0.10;;;;;;;;;;5020105;28;20069;-89
2022/11/03 06:30:47;;;;;;;0.10;0.10;;;10.60;99.90;;;;;;5058404;28;20052;-89
2022/11/03 06:33:20;;;;;;;0.10;0.10;;;10.60;99.90;;;;;;5046222;28;20045;-90
2022/11/03 06:35:49;;;;;;;0.10;0.10;;;10.70;99.90;;;;;;5063693;28;20540;-86
2022/11/03 06:38:20;;;;;;;0.10;0.10;;;10.60;99.90;;;;;;5043683;28;20048;-90
2022/11/03 06:40:50;;;;;;;0.10;0.10;;;11.70;99.90;;;;;;5032340;28;20084;-91
2022/11/03 06:43:24;;;;;;;0.10;0.10;;;10.70;99.90;;;;;;5035802;28;20083;-89
2022/11/03 06:45:56;;;;;;;0.10;0.10;;;10.60;99.90;;;;;;5041758;28;20053;-88
2022/11/03 06:48:25;;;;;;;0.10;0.10;;;10.60;99.90;;;;;;5040194;28;20065;-90
2022/11/03 06:50:53;;;;;;;0.10;0.10;;;;;;;;;;5039593;28;20061;-90
2022/11/03 06:53:24;;;;;;;0.10;0.10;;;10.70;99.90;;;;;;5044798;28;20053;-90
2022/11/03 06:55:52;;;;;;;0.00;0.00;;;;;;;;;;5034988;28;20049;-90
2022/11/03 06:58:27;;;;;;;0.10;0.10;;;10.70;99.90;;;;;;5037330;28;20068;-89
2022/11/03 07:00:58;;;;;;;0.10;0.10;;;7.80;99.90;;;;;;5035567;28;20092;-89
2022/11/03 07:03:32;;;;;;;0.10;0.10;;;10.70;99.90;;;;;;5045483;28;20604;-89
2022/11/03 07:06:03;;;;;;;0.10;0.10;;;11.20;99.90;;;;;;5031239;28;20050;-91
2022/11/03 07:08:34;;;;;;;0.10;0.10;;;10.70;99.90;;;;;;5041008;28;20081;-91
2022/11/03 07:11:09;;;;;;;0.10;0.10;;;11.70;99.90;;;;;;5032423;28;20056;-90
2022/11/03 07:13:36;;;;;;;0.10;0.10;;;;;;;;;;5039039;28;20053;-88
2022/11/03 07:16:11;;;;;;;0.10;0.10;;;10.90;99.90;;;;;;5032178;28;20065;-91
2022/11/03 07:18:46;;;;;;;0.10;0.10;;;12.00;99.90;;;;;;5051106;28;20052;-89
2022/11/03 07:21:32;;;;;;;0.10;0.10;;;12.40;99.90;;;;;;5024343;28;20048;-91
2022/11/03 07:24:00;;;;;;;0.10;0.10;;;11.00;99.90;;;;;;5038260;28;20045;-90
2022/11/03 07:26:27;;;;;;;0.10;0.10;;;11.80;99.90;;;;;;5041328;28;20059;-88
2022/11/03 07:28:54;;;;;;;0.00;0.00;;;11.00;99.90;;;;;;5051375;28;20053;-90
2022/11/03 07:31:24;;;;;;;0.00;0.00;;;11.10;99.90;;;;;;5034417;28;20064;-90
2022/11/03 07:33:55;;;;;;;0.00;0.00;;;11.10;99.90;;;;;;5034862;28;20084;-90
2022/11/03 07:36:24;;;;;;;0.00;0.00;;;11.20;99.90;;;;;;5037690;28;20049;-90
2022/11/03 07:38:53;;;;;;;0.10;0.10;;;12.10;99.90;;;;;;5036301;28;20071;-89
2022/11/03 07:41:21;;;;;;;0.10;0.10;;;11.20;99.90;;;;;;5052274;28;20072;-90
2022/11/03 07:43:52;;;;;;;0.05;0.05;;;11.60;99.90;;;;;;5028605;28;20068;-92
2022/11/03 07:46:22;;;;;;;0.10;0.10;;;11.30;99.90;;;;;;5033039;28;20106;-88
2022/11/03 07:48:52;;;;;;;0.10;0.10;;;12.90;99.90;;;;;;5035193;28;20048;-91
2022/11/03 07:51:22;;;;;;;0.10;0.10;;;11.40;99.90;;;;;;5033257;28;20060;-90
2022/11/03 07:53:50;;;;;;;0.10;0.10;;;;;;;;;;5029116;28;20046;-89
2022/11/03 07:56:19;;;;;;;0.10;0.10;;;11.40;99.90;;;;;;5035950;28;20061;-90
2022/11/03 07:58:49;;;;;;;0.00;0.00;;;13.00;99.90;;;;;;5050093;28;20048;-88
2022/11/03 08:01:24;;;;;;;0.10;0.10;;;11.40;99.90;;;;;;5031482;28;20089;-88
2022/11/03 08:03:54;;;;;;;0.00;0.00;;;11.40;99.90;;;;;;5031562;28;20045;-90
2022/11/03 08:06:21;;;;;;;0.10;0.10;;;;;;;;;;5034665;28;20049;-90
2022/11/03 08:08:48;;;;;;;0.10;0.10;;;;;;;;;;5035882;28;20049;-91
2022/11/03 08:11:15;;;;;;;0.10;0.10;;;;;;;;;;5032969;28;20049;-90
2022/11/03 08:13:42;;;;;;;0.00;0.00;;;;;;;;;;5031653;28;20053;-91
2022/11/03 08:16:10;;;;;;;0.00;0.00;;;;;;;;;;5047691;28;20503;-90
2022/11/03 08:18:38;;;;;;;0.10;0.10;;;11.60;99.90;;;;;;5023798;28;20112;-89
2022/11/03 08:21:05;;;;;;;0.00;0.00;;;13.20;99.90;;;;;;5027965;28;20107;-90
2022/11/03 08:23:32;;;;;;;0.08;0.08;;;;;;;;;;5024182;28;20117;-91
2022/11/03 08:26:00;;;;;;;0.00;0.00;;;;;;;;;;5026837;28;20054;-89
2022/11/03 08:28:27;;;;;;;0.00;0.00;;;;;;;;;;5022351;28;20121;-91
2022/11/03 08:31:00;;;;;;;0.10;0.10;;;;;;;;;;5025140;28;20048;-88
2022/11/03 08:33:28;;;;;;;0.10;0.10;;;;;;;;;;5024350;28;20076;-88
2022/11/03 08:35:56;;;;;;;0.00;0.00;;;11.90;99.90;;;;;;5021620;28;20427;-86
2022/11/03 08:38:23;;;;;;;0.00;0.00;;;12.10;99.90;;;;;;5033425;28;20021;-85
2022/11/03 08:40:51;;;;;;;0.00;0.00;;;;;;;;;;5036911;28;20068;-86
2022/11/03 08:43:21;;;;;;;0.10;0.10;;;12.20;99.90;;;;;;5036393;28;20049;-79
2022/11/03 08:45:52;;;;;;;0.00;0.00;;;;;;;;;;5048721;28;20025;-86
2022/11/03 08:48:19;;;;;;;0.00;0.00;;;12.30;99.90;;;;;;5055461;28;20072;-85
2022/11/03 08:50:47;;;;;;;0.00;0.00;;;13.10;99.90;;;;;;5044080;28;20049;-87
2022/11/03 08:53:15;;;;;;;0.00;0.00;;;12.90;99.90;;;;;;5040126;28;20068;-87
2022/11/03 08:55:43;;;;;;;0.00;0.00;;;;;;;;;;5043164;28;20056;-87
2022/11/03 08:58:10;;;;;;;0.00;0.00;;;;;;;;;;5044334;28;20037;-86
2022/11/03 09:00:37;;;;;;;0.00;0.00;;;12.50;99.90;;;;;;5045143;28;20057;-84
2022/11/03 09:03:07;;;;;;;0.00;0.00;;;12.50;99.90;;;;;;5034618;28;20058;-87
2022/11/03 09:05:34;;;;;;;0.00;0.00;;;;;;;;;;5054827;28;20036;-86
2022/11/03 09:08:01;;;;;;;0.00;0.00;;;;;;;;;;5057240;28;20399;-86
2022/11/03 09:10:49;;;;;;;0.00;0.00;;;12.80;99.90;;;;;;5037012;28;20040;-87
2022/11/03 09:13:16;;;;;;;0.00;0.00;;;;;;;;;;5042483;28;20052;-86
2022/11/03 09:15:44;;;;;;;0.00;0.00;;;;;;;;;;5053915;28;20053;-87
2022/11/03 09:18:11;;;;;;;0.00;0.00;;;;;;;;;;5019642;28;20069;-86
2022/11/03 09:20:38;;;;;;;0.00;0.00;;;;;;;;;;5030588;28;20050;-86
2022/11/03 09:23:05;;;;;;;0.10;0.10;;;;;;;;;;5048622;28;20049;-84
2022/11/03 09:25:32;;;;;;;0.00;0.00;;;;;;;;;;5031626;28;20056;-87
2022/11/03 09:28:01;;;;;;;0.00;0.00;;;13.10;99.90;;;;;;5036063;28;20053;-87
2022/11/03 09:30:28;;;;;;;0.00;0.00;;;;;;;;;;5040883;28;20050;-84
2022/11/03 09:32:55;;;;;;;0.00;0.00;;;;;;;;;;5031649;28;20038;-84
2022/11/03 09:35:22;;;;;;;0.00;0.00;;;;;;;;;;5034562;28;20102;-84
2022/11/03 09:37:50;;;;;;;0.00;0.00;;;;;;;;;;5021305;28;20057;-83
2022/11/03 09:40:17;;;;;;;0.00;0.00;;;;;;;;;;5045559;28;20049;-85
2022/11/03 09:42:44;;;;;;;0.00;0.00;;;;;;;;;;5032890;28;20033;-83
2022/11/03 09:45:13;;;;;;;0.00;0.00;;;13.20;99.90;;;;;;5034212;28;20029;-87
2022/11/03 09:47:41;;;;;;;0.00;0.00;;;13.30;99.90;;;;;;5035727;28;20052;-85
2022/11/03 09:50:14;;;;;;;0.00;0.00;;;13.20;99.90;;;;;;5034775;28;20042;-88
2022/11/03 09:52:41;;;;;;;0.00;0.00;;;13.30;99.90;;;;;;5059397;28;20060;-84
2022/11/03 09:55:17;;;;;;;0.00;0.00;;;13.30;99.90;;;;;;5046056;28;20257;-86
2022/11/03 09:57:45;;;;;;;0.00;0.00;;;;;;;;;;5034386;28;20037;-87
2022/11/03 10:00:19;;;;;;;0.00;0.00;;;13.30;99.90;;;;;;5034078;28;20140;-83
2022/11/03 10:02:47;;;;;;;0.00;0.00;;;13.40;99.90;;;;;;5036544;28;20053;-88
2022/11/03 10:05:21;;;;;;;0.00;0.00;;;13.50;99.90;;;;;;5049476;28;20072;-90
2022/11/03 10:07:48;;;;;;;0.00;0.00;;;;;;;;;;5029066;28;20033;-85
2022/11/03 10:10:18;;;;;;;0.00;0.00;;;13.50;99.90;;;;;;5034908;28;20060;-84
2022/11/03 10:12:46;;;;;;;0.00;0.00;;;13.50;99.90;;;;;;5035011;28;20041;-87
2022/11/03 10:15:16;;;;;;;0.00;0.00;;;13.60;99.90;;;;;;5032852;28;20317;-86
2022/11/03 10:17:44;;;;;;;0.00;0.00;;;;;;;;;;5053550;28;20041;-86
2022/11/03 10:20:13;;;;;;;0.00;0.00;;;13.70;99.90;;;;;;5041539;28;20049;-87
2022/11/03 10:22:41;;;;;;;0.00;0.00;;;13.70;99.90;;;;;;5037625;28;20048;-85
2022/11/03 10:25:27;;;;;;;0.00;0.00;;;13.80;99.90;;;;;;5033551;28;20119;-88
2022/11/03 10:28:18;;;;;;;0.00;0.00;;;13.90;99.90;;;;;;5051718;28;20052;-87
2022/11/03 10:30:51;;;;;;;0.00;0.00;;;13.80;99.90;;;;;;5041984;28;20041;-87
2022/11/03 10:33:40;;;;;;;0.00;0.00;;;13.90;99.90;;;;;;5042779;28;20042;-89
2022/11/03 10:36:22;;;;;;;0.00;0.00;;;13.90;99.90;;;;;;5054468;28;20045;-82
2022/11/03 10:38:49;;;;;;;0.10;0.10;;;;;;;;;;5056663;28;20038;-85
2022/11/03 10:41:17;;;;;;;0.00;0.00;;;14.10;99.90;;;;;;5044780;28;20069;-84
2022/11/03 10:43:59;;;;;;;0.00;0.00;;;14.20;99.90;;;;;;5039558;28;20075;-87
2022/11/03 10:46:28;;;;;;;0.00;0.00;;;14.30;99.90;;;;;;5035635;28;20049;-87
2022/11/03 10:49:17;;;;;;;0.00;0.00;;;14.40;99.90;;;;;;5039811;28;20050;-88
2022/11/03 10:51:48;;;;;;;0.00;0.00;;;14.30;99.90;;;;;;5042136;28;20045;-85
2022/11/03 10:54:17;;;;;;;0.00;0.00;;;14.40;99.90;;;;;;5035253;28;20042;-87
2022/11/03 10:56:45;;;;;;;0.00;0.00;;;14.40;99.90;;;;;;5058017;28;20045;-87
2022/11/03 10:59:17;;;;;;;0.00;0.00;;;14.30;99.90;;;;;;5042049;28;20049;-85
2022/11/03 11:01:45;;;;;;;0.00;0.00;;;14.30;99.90;;;;;;5060928;28;20116;-87
2022/11/03 11:04:15;;;;;;;0.00;0.00;;;14.20;99.90;;;;;;5038124;28;20056;-86
2022/11/03 11:06:42;;;;;;;0.00;0.00;;;14.20;99.90;;;;;;5037897;28;20108;-85
2022/11/03 11:09:12;;;;;;;0.00;0.00;;;14.20;99.90;;;;;;5029851;28;20046;-85
2022/11/03 11:11:39;;;;;;;0.00;0.00;;;;;;;;;;5028789;28;20057;-84
2022/11/03 11:14:23;;;;;;;0.00;0.00;;;14.10;99.90;;;;;;5027790;28;20049;-86
2022/11/03 11:16:53;;;;;;;0.00;0.00;;;14.10;99.90;;;;;;5049929;28;20045;-88
2022/11/03 11:19:21;;;;;;;0.00;0.00;;;14.70;99.90;;;;;;5031531;28;20223;-86
2022/11/03 11:21:57;;;;;;;0.10;0.10;;;14.10;99.90;;;;;;5043725;28;20072;-87
2022/11/03 11:24:56;;;;;;;0.00;0.00;;;14.60;99.90;;;;;;5032502;28;20049;-86
2022/11/03 11:27:55;;;;;;;0.00;0.00;;;14.10;99.90;;;;;;5029487;28;20049;-87
2022/11/03 11:31:01;;;;;;;0.00;0.00;;;14.10;99.90;;;;;;5032181;28;20037;-85
2022/11/03 11:33:32;;;;;;;0.10;0.10;;;14.00;99.90;;;;;;5031645;28;20033;-85
2022/11/03 11:36:22;;;;;;;0.00;0.00;;;14.00;99.90;;;;;;5041465;28;20049;-85
2022/11/03 11:39:00;;;;;;;0.00;0.00;;;14.00;99.90;;;;;;5024414;28;20052;-84
2022/11/03 11:42:05;;;;;;;0.00;0.00;;;14.00;99.90;;;;;;5023564;28;20048;-84
2022/11/03 11:44:56;;;;;;;0.00;0.00;;;14.00;99.90;;;;;;5044916;28;20036;-85
2022/11/03 11:47:39;;;;;;;0.00;0.00;;;14.00;99.90;;;;;;5038793;28;20049;-85
2022/11/03 11:50:21;;;;;;;0.00;0.00;;;13.90;99.90;;;;;;5033016;28;20048;-87
2022/11/03 11:52:54;;;;;;;0.00;0.00;;;13.80;99.90;;;;;;5055530;28;20057;-84
2022/11/03 11:55:27;;;;;;;0.08;0.08;;;13.80;99.90;;;;;;5048034;28;20045;-87
2022/11/03 11:57:55;;;;;;;0.00;0.00;;;;;;;;;;5034139;28;20059;-86
2022/11/03 12:00:24;;;;;;;0.00;0.00;;;13.80;99.90;;;;;;5044572;28;20041;-83
2022/11/03 12:02:52;;;;;;;0.00;0.00;;;13.80;99.90;;;;;;5034909;28;20091;-85
2022/11/03 12:05:22;;;;;;;0.00;0.00;;;13.80;99.90;;;;;;5050284;28;20041;-85
2022/11/03 12:07:50;;;;;;;0.00;0.00;;;;;;;;;;5027255;28;20045;-84
2022/11/03 12:10:30;;;;;;;0.00;0.00;;;13.60;99.90;;;;;;5039463;28;20132;-86
2022/11/03 12:13:00;;;;;;;0.00;0.00;;;;;;;;;;5031994;28;20067;-87
2022/11/03 12:15:47;;;;;;;0.00;0.00;;;13.60;99.90;;;;;;5034448;28;20049;-85
2022/11/03 12:18:35;;;;;;;0.00;0.00;;;13.60;99.90;;;;;;5029707;28;20062;-85
2022/11/03 12:21:10;;;;;;;0.00;0.00;;;13.50;99.90;;;;;;5043522;28;20052;-88
2022/11/03 12:23:40;;;;;;;0.00;0.00;;;13.50;99.90;;;;;;5032670;28;20096;-84
2022/11/03 12:26:14;;;;;;;;;;;15.10;99.90;;;;;;5036119;28;20037;-84
2022/11/03 12:28:41;;;;;;;0.00;0.00;;;;;;;;;;5042526;28;19909;-88
2022/11/03 12:31:08;;;;;;;0.08;0.08;;;;;;;;;;5036701;28;20065;-89
2022/11/03 12:33:36;;;;;;;0.10;0.10;;;;;;;;;;5033058;28;20228;-86
2022/11/03 12:36:03;;;;;;;0.00;0.00;;;;;;;;;;5032101;28;20026;-87
2022/11/03 12:38:32;;;;;;;0.00;0.00;;;13.70;99.90;;;;;;5029168;28;20644;-87
2022/11/03 12:41:19;;;;;;;0.00;0.00;;;;;;;;;;5034643;28;20025;-87
2022/11/03 12:43:47;;;;;;;0.00;0.00;;;13.70;99.90;;;;;;5049679;28;20045;-87
2022/11/03 12:46:15;;;;;;;0.00;0.00;;;;;;;;;;5040450;28;20049;-88
2022/11/03 12:48:43;;;;;;;0.00;0.00;;;;;;;;;;5043820;28;20125;-87
2022/11/03 12:51:11;;;;;;;0.00;0.00;;;13.70;99.90;;;;;;5053476;28;20041;-88
2022/11/03 12:53:40;;;;;;;0.00;0.00;;;12.60;99.90;;;;;;5040576;28;20080;-87
2022/11/03 12:56:09;;;;;;;0.00;0.00;;;13.70;99.90;;;;;;5056893;28;20059;-89
2022/11/03 12:58:36;;;;;;;0.00;0.00;;;;;;;;;;5046807;28;20053;-88
2022/11/03 13:01:04;;;;;;;0.00;0.00;;;;;;;;;;5048692;28;20037;-89
2022/11/03 13:03:32;;;;;;;0.00;0.00;;;;;;;;;;5034252;28;20072;-89
2022/11/03 13:06:14;;;;;;;;;;;;;;;;;;;;;
2022/11/03 13:14:41;;;;;;;0.00;0.00;;;;;;;;;;5049555;28;20099;-91
2022/11/03 13:17:14;;;;;;;0.00;0.00;;;;;;;;;;5030799;28;20051;-90
2022/11/03 13:19:42;;;;;;;0.00;0.00;;;;;;;;;;5026194;28;20053;-90
2022/11/03 13:22:09;;;;;;;0.00;0.00;;;;;;;;;;5043289;28;20045;-90
2022/11/03 13:24:37;;;;;;;0.00;0.00;;;;;;;;;;5041486;28;20053;-90
2022/11/03 13:27:05;;;;;;;0.00;0.00;;;13.70;99.90;;;;;;5048302;28;20053;-91
2022/11/03 13:29:32;;;;;;;0.00;0.00;;;;;;;;;;5036095;28;20114;-89
2022/11/03 13:32:02;;;;;;;0.10;0.10;;;13.80;99.90;;;;;;5036114;28;20522;-90
2022/11/03 13:34:29;;;;;;;0.10;0.10;;;;;;;;;;5031972;28;20557;-91
2022/11/03 13:36:57;;;;;;;0.00;0.00;;;;;;;;;;5037154;28;20332;-92
2022/11/03 13:39:25;;;;;;;0.00;0.00;;;;;;;;;;5041458;28;20045;-90
2022/11/03 13:41:52;;;;;;;0.00;0.00;;;;;;;;;;5052212;28;20190;-90
2022/11/03 13:44:20;;;;;;;0.00;0.00;;;14.20;99.90;;;;;;5036588;28;20057;-90
2022/11/03 13:46:48;;;;;;;0.00;0.00;;;;;;;;;;5038623;28;20532;-91
2022/11/03 13:49:42;;;;;;;0.00;0.00;;;14.20;99.90;;;;;;5031515;28;20044;-91
2022/11/03 13:52:55;;;;;;;;;;;;;;;;;;;;;
2022/11/03 13:55:46;;;;;;;0.00;0.00;;;;;;;;;;5044985;28;20067;-90
2022/11/03 13:58:22;;;;;;;0.00;0.00;;;;;;;;;;5037726;28;20045;-92
2022/11/03 14:01:11;;;;;;;0.00;0.00;;;14.30;99.90;;;;;;5049746;28;20041;-91
2022/11/03 14:03:38;;;;;;;0.00;0.00;;;;;;;;;;5034194;28;20053;-89
2022/11/03 14:06:25;;;;;;;0.00;0.00;;;;;;;;;;5055860;28;20026;-90
2022/11/03 14:08:53;;;;;;;0.00;0.00;;;;;;;;;;5037136;28;20056;-90
2022/11/03 14:14:06;;;;;;;0.00;0.00;;;;;;;;;;5049573;28;20071;-91
2022/11/03 14:16:34;;;;;;;0.00;0.00;;;14.00;99.90;;;;;;5036136;28;20518;-90
2022/11/03 14:19:02;;;;;;;0.00;0.00;;;;;;;;;;5052504;28;20528;-90
2022/11/03 14:21:29;;;;;;;0.00;0.00;;;;;;;;;;5024570;28;20037;-90
2022/11/03 14:23:57;;;;;;;0.00;0.00;;;;;;;;;;5025166;28;20495;-91
2022/11/03 14:26:24;;;;;;;0.00;0.00;;;;;;;;;;5026068;28;20545;-91
2022/11/03 14:29:09;;;;;;;0.00;0.00;;;;;;;;;;5044537;28;20052;-90
2022/11/03 14:31:38;;;;;;;0.00;0.00;;;13.80;99.90;;;;;;5048566;28;20471;-89
2022/11/03 14:34:05;;;;;;;0.00;0.00;;;;;;;;;;5031986;28;20057;-91
2022/11/03 14:36:32;;;;;;;0.00;0.00;;;;;;;;;;5035016;28;20040;-91
2022/11/03 14:39:00;;;;;;;0.00;0.00;;;;;;;;;;5037169;28;20392;-92
2022/11/03 14:44:13;;;;;;;0.00;0.00;;;;;;;;;;5048472;28;20063;-91